MET'MAP v2.0
soon released !

Expected late october,
this new version will be
more efficient, smarter,
and hosted on a brand new
server x3 powerfull...
...and still free !


Not compatible ?
Try the mobile version !

LOG IN : | Subscribe | Disclaimer | Who is Orbifly ? |
ICAO code :

TAF - EDDP Leipzig Halle - 05 Dec 2019 17:55 UTC - Data Source NOAA   


- Airport Elevation : 465 ft
- IATA code : LEJ
- No reported NOTAMs.


EDDP - Leipzig Halle

Latest METAR recorded : 2015/08/11 07:50 EDDP 110750Z 30009KT CAVOK 24/18 Q1016 NOSIG
TAF TAF EDDP
Valid from the 05 at 12:00 until the 06 at 12:00 UTC


051100Z 0512/0612 21010KT CAVOK
BECMG 0602/0605 21015G25KT

Source NOAA


MET'MAP, your aeronautical weather chart ! - Copyright ORBIFLY December 2007

Programming & Development : Alexandra Zaïnal
Co-Developer : Marc-Olivier Méhu
Technical & hardware support : Manuel Goepfert
Concept & Financing : Baudouin d'Aumeries